Latest Weather Observations for Central Arnhem Plateau

IDD60801

Issued at 5:05 pm CST Sunday 21 September 2014 (issued every 30 minutes, with the page automatically refreshed every 10 minutes)

About weather observations | Map of weather stations | Latest weather observations for NT | Other Formats
Station Details ID: 014909 Name: CENTRAL ARNHEM PLATEAU Lat: -13.33 Lon: 133.09 Height: 416.0 m
Data from the previous 72 hours. | See also: Recent months for locations in Northern Territory
Date/Time
CST
Temp
°C
App
Temp
°C
Dew
Point
Rel
Hum
%
Delta-T
°C
Wind Press
QNH
hPa
Press
MSL
hPa
Rain
since 9 am
mm
Dir
 
Spd
km/h
Gust
km/h
Spd
kts
Gust
kts
21/05:00pm 34.7 29.1 -2.8 9 18.0 E 17 30 9 16 1012.6 1009.9 0.0
21/04:30pm 34.7 29.1 -2.8 9 18.0 SE 17 24 9 13 1012.6 1009.9 0.0
21/04:00pm 35.3 29.4 -2.3 9 18.3 E 19 24 10 13 1012.4 1009.7 0.0
21/03:30pm 36.1 31.4 -1.7 9 18.6 SE 13 24 7 13 1012.6 1009.9 0.0
21/03:00pm 35.8 31.1 -2.0 9 18.5 ESE 13 17 7 9 1012.8 1010.2 0.0
21/02:30pm 35.0 29.1 -1.1 10 17.8 ENE 20 30 11 16 1013.0 1010.4 0.0
21/02:00pm 35.1 29.3 0.2 11 17.6 ENE 20 28 11 15 1013.3 1010.7 0.0
21/01:30pm 34.7 30.2 -0.1 11 17.4 ENE 13 32 7 17 1013.9 1011.2 0.0
21/01:00pm 32.6 27.3 -0.5 12 16.3 E 17 30 9 16 1014.8 1012.2 0.0
21/12:30pm 33.5 27.9 1.3 13 16.4 NE 20 33 11 18 1015.4 1012.8 0.0
21/12:00pm 33.4 29.3 2.3 14 16.1 E 13 24 7 13 1016.0 1013.4 0.0
21/11:30am 31.6 27.0 1.8 15 15.1 ENE 15 20 8 11 1016.6 1013.9 0.0
21/11:00am 31.5 27.4 4.3 18 14.4 E 15 22 8 12 1017.0 1014.4 0.0
21/10:30am 30.8 27.7 3.8 18 14.1 ENE 9 19 5 10 1017.5 1014.9 0.0
21/10:00am 28.4 26.3 6.5 25 11.8 SSE 7 13 4 7 1017.5 1014.9 0.0
21/09:30am 27.4 26.0 9.7 33 10.0 S 7 13 4 7 1017.7 1015.1 0.0
21/09:00am 25.6 24.6 12.4 43 7.7 SW 9 13 5 7 1017.7 1015.1 0.0
21/08:30am 24.3 22.8 13.2 50 6.6 WSW 13 17 7 9 1017.7 1015.1 0.0
21/08:00am 23.3 21.7 14.0 56 5.5 WSW 15 19 8 10 1017.5 1014.9 0.0
21/07:30am 22.1 21.4 13.2 57 5.2 WSW 9 13 5 7 1017.0 1014.4 0.0
21/07:00am 20.9 20.0 12.6 59 4.8 W 9 13 5 7 1016.6 1013.9 0.0
21/06:30am 20.3 18.8 12.0 59 4.7 WSW 11 15 6 8 1016.0 1013.4 0.0
21/06:00am 20.5 18.6 11.7 57 5.0 W 13 13 7 7 1015.6 1013.0 0.0
21/05:30am 20.4 18.6 10.8 54 5.3 W 11 13 6 7 1015.3 1012.7 0.0
21/05:00am 20.8 18.9 10.6 52 5.7 W 11 13 6 7 1015.0 1012.4 0.0
21/04:30am 21.3 19.4 10.5 50 6.0 W 11 15 6 8 1014.8 1012.2 0.0
21/04:00am 21.6 19.8 10.7 50 6.1 W 11 17 6 9 1014.7 1012.0 0.0
21/03:30am 20.7 18.6 8.4 45 6.6 W 9 13 5 7 1014.8 1012.2 0.0
21/03:00am 19.2 16.4 3.0 34 7.7 WNW 7 9 4 5 1014.8 1012.2 0.0
21/02:30am 19.1 16.4 0.2 28 8.5 E 4 7 2 4 1014.8 1012.2 0.0
21/02:00am 20.2 17.0 0.6 27 9.0 E 7 9 4 5 1015.0 1012.4 0.0
21/01:30am 21.9 18.3 0.4 24 9.9 ENE 9 9 5 5 1015.3 1012.7 0.0
21/01:00am 22.6 18.9 -0.2 22 10.5 ENE 9 9 5 5 1015.5 1012.9 0.0
21/12:30am 23.1 19.3 -0.4 21 10.8 NE 9 9 5 5 1015.7 1013.1 0.0
21/12:00am 22.8 18.9 -1.3 20 10.9 ENE 9 9 5 5 1016.0 1013.4 0.0
 
Date/Time
CST
Temp
°C
App
Temp
°C
Dew
Point
Rel
Hum
%
Delta-T
°C
Wind Press
QNH
hPa
Press
MSL
hPa
Rain
since 9 am
mm
Dir
 
Spd
km/h
Gust
km/h
Spd
kts
Gust
kts
20/11:30pm 24.3 20.5 -0.8 19 11.5 ENE 9 9 5 5 1016.3 1013.7 0.0
20/11:00pm 24.6 20.7 -1.3 18 11.8 ENE 9 11 5 6 1016.5 1013.8 0.0
20/10:30pm 26.6 22.7 -1.3 16 12.9 E 9 11 5 6 1016.6 1013.9 0.0
20/10:00pm 27.3 23.1 -0.7 16 13.2 E 11 13 6 7 1016.3 1013.7 0.0
20/09:30pm 26.2 22.7 -1.6 16 12.8 E 7 9 4 5 1016.1 1013.5 0.0
20/09:00pm 28.2 24.4 -0.9 15 13.8 E 9 15 5 8 1015.8 1013.2 0.0
20/08:30pm 28.7 24.4 -1.4 14 14.2 E 11 15 6 8 1015.4 1012.8 0.0
20/08:00pm 29.4 25.1 -1.9 13 14.7 E 11 13 6 7 1015.2 1012.6 0.0
20/07:30pm 30.3 25.9 -2.2 12 15.3 E 11 15 6 8 1014.7 1012.0 0.0
20/07:00pm 30.9 26.6 -1.8 12 15.5 E 11 15 6 8 1014.2 1011.5 0.0
20/06:30pm 32.0 26.9 -2.1 11 16.2 E 15 24 8 13 1013.6 1011.0 0.0
20/06:00pm 33.0 26.9 -2.6 10 16.9 ESE 20 30 11 16 1013.0 1010.4 0.0
20/05:30pm 33.8 27.2 -3.5 9 17.6 SE 22 30 12 16 1012.7 1010.1 0.0
20/05:00pm 33.9 26.9 -3.4 9 17.6 SE 24 37 13 20 1012.3 1009.6 0.0
20/04:30pm 34.5 27.0 -4.5 8 18.2 ESE 26 39 14 21 1012.3 1009.6 0.0
20/04:00pm 34.5 27.9 -2.9 9 17.9 ESE 22 39 12 21 1012.3 1009.6 0.0
20/03:40pm 34.5 27.0 -1.5 10 17.6 E 28 54 15 29 1012.5 1009.8 0.0
20/03:30pm 34.4 27.6 -1.6 10 17.6 SE 24 35 13 19 1012.7 1010.1 0.0
20/03:00pm 34.1 26.9 -1.8 10 17.4 E 26 43 14 23 1013.1 1010.5 0.0
20/02:30pm 34.0 26.6 -3.3 9 17.7 E 26 43 14 23 1013.4 1010.8 0.0
20/02:16pm 33.9 26.1 -3.4 9 17.6 E 28 48 15 26 1013.7 1011.1 0.0
20/02:00pm 34.4 26.7 -3.0 9 17.9 E 28 35 15 19 1014.2 1011.5 0.0
20/01:30pm 34.0 25.5 -3.3 9 17.7 E 32 46 17 25 1014.7 1012.0 0.0
20/01:09pm 33.3 25.5 -3.8 9 17.3 E 28 50 15 27 1015.0 1012.4 0.0
20/01:00pm 33.1 25.7 -4.0 9 17.3 E 26 44 14 24 1015.2 1012.6 0.0
20/12:30pm 34.2 25.7 -1.7 10 17.5 E 33 46 18 25 1015.6 1013.0 0.0
20/12:00pm 33.4 25.8 -2.3 10 17.1 E 28 44 15 24 1016.3 1013.7 0.0
20/11:35am 32.9 24.3 -2.7 10 16.9 E 33 52 18 28 1016.9 1014.2 0.0
20/11:30am 32.6 24.3 -1.7 11 16.5 E 32 46 17 25 1017.0 1014.4 0.0
20/11:00am 32.3 24.0 -1.9 11 16.4 E 32 46 17 25 1017.4 1014.8 0.0
20/10:30am 31.4 23.3 -0.3 13 15.5 ENE 32 41 17 22 1017.7 1015.1 0.0
20/10:00am 31.1 24.5 -0.5 13 15.4 E 24 35 13 19 1017.8 1015.2 0.0
20/09:30am 28.4 23.5 1.8 18 13.2 E 17 22 9 12 1017.9 1015.3 0.0
20/09:00am 26.9 23.4 3.4 22 11.9 SE 11 15 6 8 1017.9 1015.3 0.0
20/08:30am 26.1 22.8 2.7 22 11.6 SSE 9 13 5 7 1017.9 1015.3 0.0
20/08:00am 24.1 21.5 4.0 27 10.1 S 7 11 4 6 1017.7 1015.1 0.0
20/07:30am 20.7 19.7 5.5 37 7.7 CALM 0 7 0 4 1017.4 1014.8 0.0
20/07:00am 17.2 16.1 5.2 45 5.9 CALM 0 0 0 0 1017.0 1014.4 0.0
20/06:30am 17.2 16.1 4.9 44 6.0 CALM 0 0 0 0 1016.6 1013.9 0.0
20/06:00am 17.8 15.1 3.7 39 6.7 SW 7 9 4 5 1016.2 1013.6 0.0
20/05:30am 18.1 16.1 4.3 40 6.7 WNW 4 6 2 3 1015.7 1013.1 0.0
20/05:00am 18.8 16.1 3.8 37 7.2 WSW 7 9 4 5 1015.5 1012.9 0.0
20/04:30am 17.4 15.6 3.3 39 6.7 SSW 2 9 1 5 1015.3 1012.7 0.0
20/04:00am 18.5 15.8 2.8 35 7.4 SE 6 7 3 4 1015.1 1012.5 0.0
20/03:30am 20.6 18.1 3.8 33 8.2 SE 6 11 3 6 1015.0 1012.4 0.0
20/03:00am 21.6 18.5 3.8 31 8.8 SE 9 9 5 5 1015.3 1012.7 0.0
20/02:30am 21.9 19.4 3.6 30 9.0 E 6 7 3 4 1015.5 1012.9 0.0
20/02:00am 22.9 20.2 3.9 29 9.5 ENE 7 11 4 6 1015.8 1013.2 0.0
20/01:30am 22.9 19.9 3.9 29 9.4 ENE 9 13 5 7 1016.0 1013.4 0.0
20/01:00am 21.7 18.6 1.4 26 9.6 NE 7 9 4 5 1016.6 1013.9 0.0
20/12:30am 22.1 19.0 1.2 25 9.8 ENE 7 9 4 5 1017.1 1014.5 0.0
20/12:00am 22.4 19.3 0.3 23 10.2 E 6 7 3 4 1017.5 1014.9 0.0
 
Date/Time
CST
Temp
°C
App
Temp
°C
Dew
Point
Rel
Hum
%
Delta-T
°C
Wind Press
QNH
hPa
Press
MSL
hPa
Rain
since 9 am
mm
Dir
 
Spd
km/h
Gust
km/h
Spd
kts
Gust
kts
19/11:30pm 24.6 21.0 0.8 21 11.3 E 9 11 5 6 1017.5 1014.9 0.0
19/11:00pm 25.1 21.9 0.6 20 11.6 E 7 9 4 5 1017.5 1014.9 0.0
19/10:30pm 25.7 22.2 1.1 20 11.8 ESE 9 11 5 6 1017.3 1014.7 0.0
19/10:00pm 26.1 22.6 1.4 20 12.0 ESE 9 11 5 6 1017.3 1014.7 0.0
19/09:30pm 27.0 23.1 1.4 19 12.5 ESE 11 13 6 7 1017.1 1014.5 0.0
19/09:00pm 28.1 23.8 0.8 17 13.3 ESE 13 17 7 9 1016.8 1014.1 0.0
19/08:30pm 28.4 24.4 0.2 16 13.6 ESE 11 15 6 8 1016.6 1013.9 0.0
19/08:00pm 29.3 24.5 0.0 15 14.2 E 15 17 8 9 1016.2 1013.6 0.0
19/07:30pm 30.0 25.1 -0.4 14 14.7 E 15 20 8 11 1015.6 1013.0 0.0
19/07:00pm 30.8 25.1 -0.8 13 15.3 E 19 26 10 14 1015.0 1012.4 0.0
19/06:30pm 31.6 25.8 -1.2 12 15.8 E 19 26 10 14 1014.5 1011.8 0.0
19/06:00pm 32.4 26.0 -1.8 11 16.4 E 22 32 12 17 1014.1 1011.4 0.0
19/05:30pm 33.1 25.6 -1.3 11 16.7 E 28 37 15 20 1013.6 1011.0 0.0
19/05:00pm 33.9 26.5 -0.7 11 17.1 E 28 39 15 21 1013.3 1010.7 0.0
19/04:30pm 33.8 26.4 -0.7 11 17.0 E 28 39 15 21 1012.9 1010.3 0.0
19/04:00pm 34.2 27.8 0.8 12 16.9 E 24 33 13 18 1012.9 1010.3 0.0
19/03:30pm 34.2 28.7 0.8 12 16.9 ESE 19 26 10 14 1013.0 1010.4 0.0
19/03:00pm 34.1 28.2 -0.5 11 17.2 NE 20 32 11 17 1013.3 1010.7 0.0
19/02:30pm 34.8 27.7 -1.3 10 17.8 ESE 26 43 14 23 1013.6 1011.0 0.0
19/02:15pm 34.2 26.7 -1.7 10 17.5 E 28 52 15 28 1013.9 1011.2 0.0
19/02:00pm 34.7 27.2 -1.4 10 17.7 ESE 28 41 15 22 1014.1 1011.4 0.0
19/01:37pm 34.9 27.0 -1.2 10 17.8 E 30 48 16 26 1014.4 1011.7 0.0
19/01:30pm 33.9 26.5 -0.7 11 17.1 E 28 43 15 23 1014.6 1011.9 0.0
19/01:00pm 33.5 26.6 0.2 12 16.6 ESE 26 37 14 20 1015.2 1012.6 0.0
19/12:59pm 33.5 26.6 0.2 12 16.6 ESE 26 35 14 19 1015.3 1012.7 0.0
19/12:47pm 33.2 23.6 -1.2 11 16.8 E 39 48 21 26 1015.5 1012.9 0.0
19/12:45pm 33.6 25.6 0.3 12 16.7 ESE 32 50 17 27 1015.4 1012.8 0.0
19/12:30pm 33.6 26.3 0.3 12 16.7 E 28 35 15 19 1015.8 1013.2 0.0
19/12:01pm 33.2 25.9 0.0 12 16.5 ESE 28 46 15 25 1016.5 1013.8 0.0
19/12:00pm 32.9 25.2 -0.2 12 16.4 ESE 30 46 16 25 1016.5 1013.8 0.0
19/11:56am 33.0 24.9 -0.2 12 16.4 ESE 32 50 17 27 1016.6 1013.9 0.0
19/11:30am 32.5 23.8 -0.5 12 16.2 ESE 35 46 19 25 1016.9 1014.2 0.0
19/11:23am 32.7 24.6 -0.4 12 16.3 E 32 50 17 27 1017.1 1014.5 0.0
19/11:00am 32.3 24.0 -1.9 11 16.4 E 32 46 17 25 1017.5 1014.9 0.0
19/10:30am 31.9 24.5 -1.0 12 15.9 E 28 46 15 25 1017.8 1015.2 0.0
19/10:27am 32.0 24.6 -0.9 12 16.0 E 28 46 15 25 1017.9 1015.3 0.0
19/10:00am 31.2 24.4 -1.5 12 15.7 ESE 24 43 13 23 1018.0 1015.4 0.0
19/09:30am 29.2 24.8 2.5 18 13.5 E 15 20 8 11 1018.1 1015.5 0.0
19/09:00am 27.7 23.7 2.7 20 12.5 ESE 13 17 7 9 1018.2 1015.6 0.0
19/08:30am 26.3 23.4 4.7 25 11.1 ESE 9 13 5 7 1018.1 1015.5 0.0
19/08:00am 24.0 22.0 7.2 34 8.9 SE 7 9 4 5 1018.0 1015.4 0.0
19/07:30am 21.5 19.9 8.1 42 7.1 SE 6 7 3 4 1017.7 1015.1 0.0
19/07:00am 17.4 15.1 5.0 44 6.1 SE 6 7 3 4 1017.4 1014.8 0.0
19/06:30am 17.3 14.9 4.3 42 6.3 SE 6 6 3 3 1017.1 1014.5 0.0
19/06:00am 18.3 15.7 3.4 37 7.1 SE 6 7 3 4 1016.7 1014.0 0.0
19/05:30am 18.7 16.1 3.3 36 7.3 SE 6 7 3 4 1016.6 1013.9 0.0
19/05:00am 19.5 17.3 5.2 39 7.1 ESE 6 7 3 4 1016.3 1013.7 0.0
19/04:30am 18.9 16.1 3.1 35 7.5 E 7 7 4 4 1016.1 1013.5 0.0
19/04:00am 19.0 16.1 2.8 34 7.7 ENE 7 7 4 4 1016.0 1013.4 0.0
19/03:30am 20.2 17.4 3.0 32 8.2 ENE 7 9 4 5 1016.1 1013.5 0.0
19/03:00am 21.1 18.4 3.8 32 8.5 E 7 9 4 5 1016.1 1013.5 0.0
19/02:30am 22.2 19.0 3.3 29 9.2 E 9 9 5 5 1016.2 1013.6 0.0
19/02:00am 23.5 20.0 3.4 27 10.0 ENE 11 13 6 7 1016.5 1013.8 0.0
19/01:30am 24.1 21.0 3.4 26 10.3 E 9 13 5 7 1016.9 1014.2 0.0
19/01:00am 24.0 20.8 3.3 26 10.3 E 9 11 5 6 1017.1 1014.5 0.0
19/12:30am 24.6 21.4 3.3 25 10.6 E 9 13 5 7 1017.4 1014.8 0.0
19/12:00am 24.9 21.0 3.5 25 10.7 E 13 15 7 8 1017.5 1014.9 0.0
 
Date/Time
CST
Temp
°C
App
Temp
°C
Dew
Point
Rel
Hum
%
Delta-T
°C
Wind Press
QNH
hPa
Press
MSL
hPa
Rain
since 9 am
mm
Dir
 
Spd
km/h
Gust
km/h
Spd
kts
Gust
kts
18/11:30pm 24.7 21.8 4.5 27 10.3 E 9 15 5 8 1017.7 1015.1 0.0
18/11:00pm 23.4 21.2 3.4 27 9.9 E 4 6 2 3 1017.6 1015.0 0.0
18/10:30pm 24.3 21.5 3.0 25 10.5 ENE 7 9 4 5 1017.6 1015.0 0.0
18/10:00pm 24.9 22.0 2.4 23 11.0 E 7 9 4 5 1017.5 1014.9 0.0
18/09:30pm 26.8 23.5 2.7 21 12.0 ESE 9 11 5 6 1017.3 1014.7 0.0
18/09:00pm 27.3 24.4 2.4 20 12.4 E 7 9 4 5 1017.2 1014.6 0.0
18/08:30pm 27.9 24.2 2.2 19 12.8 E 11 13 6 7 1016.9 1014.2 0.0
18/08:00pm 28.6 24.5 2.0 18 13.3 E 13 19 7 10 1016.6 1013.9 0.0
18/07:30pm 29.4 24.3 1.0 16 14.0 E 17 24 9 13 1016.0 1013.4 0.0
18/07:00pm 29.9 24.3 1.4 16 14.2 E 20 30 11 16 1015.5 1012.9 0.0
18/06:30pm 30.4 24.7 2.6 17 14.2 E 22 30 12 16 1015.1 1012.5 0.0
18/06:00pm 31.2 25.0 2.4 16 14.7 E 24 33 13 18 1014.6 1011.9 0.0
18/05:30pm 31.9 25.5 3.0 16 15.0 E 26 39 14 21 1014.1 1011.4 0.0

Other Formats:

Comma delimited format used in spreadsheet applications
http://www.bom.gov.au/fwo/IDD60801/IDD60801.94141.axf

JavaScript Object Notation format (JSON) in row-major order
http://www.bom.gov.au/fwo/IDD60801/IDD60801.94141.json